Time;durP1;ratioP1;P1;durP2;ratioP2;P2;SDS_P1;SDS_P2;PMS_P1;PMS_P2;Temp;Humidity;BMP_temperature;BMP_pressure;BME280_temperature;BME280_humidity;BME280_pressure;Samples;Min_cycle;Max_cycle;Signal;HPM_P1;HPM_P2
2021/12/08 00:00:44;;;;;;;47.03;28.17;;;2.90;99.90;;;;;;5014019;28;20744;-50
2021/12/08 00:03:13;;;;;;;43.08;26.70;;;2.70;99.90;;;;;;5014244;28;20228;-50
2021/12/08 00:05:41;;;;;;;40.90;25.70;;;3.10;99.90;;;;;;5014200;28;20277;-50
2021/12/08 00:08:09;;;;;;;40.03;24.98;;;2.70;99.90;;;;;;5013733;28;20229;-50
2021/12/08 00:13:21;;;;;;;43.97;25.63;;;3.00;99.90;;;;;;5012690;28;20793;-50
2021/12/08 00:15:54;;;;;;;42.30;26.10;;;3.00;99.90;;;;;;5012628;28;20284;-50
2021/12/08 00:18:25;;;;;;;46.45;26.75;;;2.90;99.90;;;;;;5012238;28;20288;-50
2021/12/08 00:20:53;;;;;;;43.63;26.50;;;3.00;99.90;;;;;;5013796;28;20240;-51
2021/12/08 00:23:22;;;;;;;46.33;27.33;;;2.90;99.90;;;;;;5012304;28;20217;-51
2021/12/08 00:25:50;;;;;;;42.55;26.92;;;3.00;99.90;;;;;;5013865;28;20212;-51
2021/12/08 00:28:17;;;;;;;45.72;25.85;;;2.90;99.90;;;;;;5011934;28;20202;-50
2021/12/08 00:30:50;;;;;;;44.53;27.08;;;3.00;99.90;;;;;;5012253;28;20213;-51
2021/12/08 00:33:19;;;;;;;45.45;27.05;;;2.50;99.90;;;;;;5012435;28;20221;-50
2021/12/08 00:35:49;;;;;;;45.05;26.77;;;2.90;99.90;;;;;;5013627;28;20255;-51
2021/12/08 00:38:17;;;;;;;49.13;28.35;;;2.80;99.90;;;;;;5011876;28;20288;-51
2021/12/08 00:40:45;;;;;;;45.55;26.23;;;2.80;99.90;;;;;;5011867;28;20316;-51
2021/12/08 00:43:12;;;;;;;43.97;27.48;;;2.70;99.90;;;;;;5013292;28;20229;-51
2021/12/08 00:45:39;;;;;;;45.35;26.55;;;3.00;99.90;;;;;;5011999;28;20243;-52
2021/12/08 00:48:07;;;;;;;42.88;25.50;;;2.90;99.90;;;;;;5013028;28;20201;-50
2021/12/08 00:50:38;;;;;;;44.63;26.27;;;2.40;99.90;;;;;;5013162;28;20240;-51
2021/12/08 00:53:05;;;;;;;46.03;24.85;;;2.80;99.90;;;;;;5013459;28;20548;-51
2021/12/08 00:55:32;;;;;;;38.85;25.75;;;2.70;99.90;;;;;;5012565;28;20264;-49
2021/12/08 00:58:00;;;;;;;43.85;25.58;;;2.90;99.90;;;;;;5011403;28;20299;-50
2021/12/08 01:00:29;;;;;;;43.22;24.73;;;2.80;99.90;;;;;;5013083;28;20193;-51
2021/12/08 01:02:56;;;;;;;43.03;24.75;;;2.90;99.90;;;;;;5012724;28;20289;-50
2021/12/08 01:05:26;;;;;;;50.58;25.85;;;2.20;99.90;;;;;;5013158;28;20717;-50
2021/12/08 01:07:55;;;;;;;44.33;28.00;;;2.80;99.90;;;;;;5012756;28;20591;-50
2021/12/08 01:10:23;;;;;;;43.03;23.65;;;2.70;99.90;;;;;;5012922;28;20705;-50
2021/12/08 01:12:53;;;;;;;42.78;25.15;;;2.70;99.90;;;;;;5011477;28;20297;-50
2021/12/08 01:15:21;;;;;;;44.67;26.27;;;2.40;99.90;;;;;;5011394;28;20288;-50
2021/12/08 01:17:50;;;;;;;42.40;26.15;;;2.80;99.90;;;;;;5012433;28;20277;-50
2021/12/08 01:20:17;;;;;;;42.15;24.02;;;2.70;99.90;;;;;;5011506;28;20211;-50
2021/12/08 01:22:46;;;;;;;41.35;26.17;;;3.00;99.90;;;;;;5011442;28;20231;-50
2021/12/08 01:25:15;;;;;;;45.90;26.63;;;2.30;99.90;;;;;;5012598;28;20705;-51
2021/12/08 01:27:42;;;;;;;44.65;26.00;;;2.80;99.90;;;;;;5010915;28;20577;-51
2021/12/08 01:30:11;;;;;;;38.85;23.17;;;2.50;99.90;;;;;;5011298;28;20205;-51
2021/12/08 01:32:38;;;;;;;43.83;26.65;;;2.70;99.90;;;;;;5012597;28;20809;-51
2021/12/08 01:35:07;;;;;;;47.70;27.52;;;2.60;99.90;;;;;;5012603;28;20272;-51
2021/12/08 01:37:34;;;;;;;45.88;28.23;;;2.70;99.90;;;;;;5011147;28;20304;-51
2021/12/08 01:40:01;;;;;;;40.97;24.98;;;2.60;99.90;;;;;;5011163;28;20205;-50
2021/12/08 01:42:34;;;;;;;39.35;25.95;;;2.90;99.90;;;;;;5012448;28;20677;-50
2021/12/08 01:47:48;;;;;;;39.95;24.17;;;2.90;99.90;;;;;;5012011;28;20196;-50
2021/12/08 01:50:15;;;;;;;41.78;24.90;;;2.70;99.90;;;;;;5012319;28;20207;-49
2021/12/08 01:52:44;;;;;;;39.65;24.45;;;2.70;99.90;;;;;;5050573;23;20726;-51
2021/12/08 01:55:11;;;;;;;40.85;25.80;;;2.80;99.90;;;;;;5029786;28;20301;-50
2021/12/08 01:57:39;;;;;;;39.85;25.10;;;2.70;99.90;;;;;;5031163;28;20589;-50
2021/12/08 02:00:11;;;;;;;42.08;24.35;;;2.50;99.90;;;;;;5031203;28;20203;-50
2021/12/08 02:02:38;;;;;;;47.28;26.55;;;2.60;99.90;;;;;;5031031;28;20298;-51
2021/12/08 02:05:05;;;;;;;46.50;26.05;;;2.00;99.90;;;;;;5029690;28;20319;-50
2021/12/08 02:07:33;;;;;;;40.78;24.50;;;2.80;99.90;;;;;;5028748;28;20232;-50
2021/12/08 02:10:00;;;;;;;37.97;23.70;;;2.60;99.90;;;;;;5030874;28;20200;-50
2021/12/08 02:12:29;;;;;;;38.42;24.05;;;2.70;99.90;;;;;;5029502;28;20717;-51
2021/12/08 02:14:59;;;;;;;45.15;24.98;;;2.50;99.90;;;;;;5029878;28;20215;-50
2021/12/08 02:17:25;;;;;;;43.50;24.85;;;2.00;99.90;;;;;;5030947;28;20235;-50
2021/12/08 02:19:52;;;;;;;46.05;25.30;;;2.50;99.90;;;;;;5030853;28;20670;-51
2021/12/08 02:22:22;;;;;;;37.03;23.48;;;2.20;99.90;;;;;;5030658;28;20300;-51
2021/12/08 02:24:49;;;;;;;38.90;23.15;;;2.70;99.90;;;;;;5030731;28;20304;-50
2021/12/08 02:27:16;;;;;;;34.92;22.55;;;2.50;99.90;;;;;;5031038;28;20279;-51
2021/12/08 02:29:49;;;;;;;38.88;20.58;;;2.50;99.90;;;;;;5030912;28;20587;-51
2021/12/08 02:46:31;;;;;;;36.28;21.95;;;2.50;99.90;;;;;;5030962;28;20221;-51
2021/12/08 02:48:55;;;;;;;34.30;22.30;;;2.50;99.90;;;;;;5030623;28;20193;-51
2021/12/08 02:51:22;;;;;;;40.42;23.17;;;2.50;99.90;;;;;;5030392;28;20657;-50
2021/12/08 02:53:51;;;;;;;40.17;22.05;;;2.40;99.90;;;;;;5030573;28;20189;-51
2021/12/08 02:56:18;;;;;;;37.63;21.90;;;2.30;99.90;;;;;;5029412;28;20296;-50
2021/12/08 02:58:45;;;;;;;38.15;21.52;;;1.90;99.90;;;;;;5030357;28;20193;-50
2021/12/08 03:01:13;;;;;;;35.63;22.80;;;2.60;99.90;;;;;;5030468;28;20292;-51
2021/12/08 03:03:40;;;;;;;35.72;21.95;;;2.40;99.90;;;;;;5030402;28;20197;-51
2021/12/08 03:06:07;;;;;;;35.20;20.92;;;2.40;99.90;;;;;;5030553;28;20204;-50
2021/12/08 03:08:34;;;;;;;33.80;19.73;;;2.60;99.90;;;;;;5030235;28;20255;-51
2021/12/08 03:11:02;;;;;;;35.35;22.13;;;2.10;99.90;;;;;;5030437;28;20259;-50
2021/12/08 03:13:30;;;;;;;36.97;22.80;;;2.60;99.90;;;;;;5030432;28;20279;-51
2021/12/08 03:15:57;;;;;;;36.85;22.67;;;1.90;99.90;;;;;;5029251;28;20316;-51
2021/12/08 03:18:31;;;;;;;29.63;19.92;;;2.60;99.90;;;;;;5028949;28;20279;-51
2021/12/08 03:21:02;;;;;;;35.63;22.33;;;2.70;99.90;;;;;;5034164;28;20219;-51
2021/12/08 03:23:44;;;;;;;34.88;22.42;;;2.50;99.90;;;;;;5032675;28;20219;-50
2021/12/08 03:26:12;;;;;;;39.30;22.88;;;2.60;99.90;;;;;;5032857;28;20657;-51
2021/12/08 03:28:46;;;;;;;33.55;21.38;;;2.70;99.90;;;;;;5033573;28;20568;-50
2021/12/08 03:31:17;;;;;;;34.75;21.85;;;2.40;99.90;;;;;;5033963;28;20227;-51
2021/12/08 03:33:44;;;;;;;40.60;21.77;;;2.40;99.90;;;;;;5033851;28;20596;-50
2021/12/08 03:36:12;;;;;;;35.42;21.73;;;2.50;99.90;;;;;;5033812;28;20200;-50
2021/12/08 03:38:40;;;;;;;38.15;23.80;;;2.50;99.90;;;;;;5033550;28;20197;-49
2021/12/08 03:41:07;;;;;;;33.20;22.25;;;2.40;99.90;;;;;;5032239;28;20224;-50
2021/12/08 03:43:35;;;;;;;34.47;21.73;;;2.30;99.90;;;;;;5033662;28;20204;-50
2021/12/08 03:46:04;;;;;;;35.15;21.58;;;2.50;99.90;;;;;;5033686;28;20224;-49
2021/12/08 03:48:38;;;;;;;32.95;21.65;;;2.30;99.90;;;;;;5033446;28;20356;-50
2021/12/08 03:51:05;;;;;;;35.60;23.55;;;2.70;99.90;;;;;;5033353;28;20223;-50
2021/12/08 03:53:32;;;;;;;36.47;22.98;;;2.70;99.90;;;;;;5033330;28;20204;-50
2021/12/08 03:55:59;;;;;;;38.47;24.38;;;2.10;99.90;;;;;;5033433;28;20208;-50
2021/12/08 03:58:25;;;;;;;39.50;23.55;;;1.90;99.90;;;;;;5033041;28;20192;-50
2021/12/08 04:00:58;;;;;;;37.75;24.70;;;2.50;99.90;;;;;;5033354;28;20247;-50
2021/12/08 04:03:28;;;;;;;36.70;22.52;;;2.40;99.90;;;;;;5033220;28;20205;-49
2021/12/08 04:05:58;;;;;;;40.35;22.88;;;2.50;99.90;;;;;;5033239;28;20221;-50
2021/12/08 04:08:31;;;;;;;37.15;23.05;;;2.30;99.90;;;;;;5032949;28;20300;-50
2021/12/08 04:10:59;;;;;;;37.55;22.38;;;2.60;99.90;;;;;;5033287;28;20223;-50
2021/12/08 04:13:30;;;;;;;41.58;25.05;;;1.90;99.90;;;;;;5033087;28;20658;-50
2021/12/08 04:15:58;;;;;;;38.30;23.63;;;1.90;99.90;;;;;;5033195;28;20191;-50
2021/12/08 04:18:26;;;;;;;36.75;23.67;;;2.40;99.90;;;;;;5032744;28;20192;-50
2021/12/08 04:20:58;;;;;;;38.67;24.80;;;2.40;99.90;;;;;;5031504;28;20231;-50
2021/12/08 04:23:28;;;;;;;39.05;25.60;;;2.00;99.90;;;;;;5032858;28;20208;-50
2021/12/08 04:25:58;;;;;;;36.65;23.75;;;2.50;99.90;;;;;;5032758;28;20230;-50
2021/12/08 04:28:28;;;;;;;36.83;24.83;;;2.50;99.90;;;;;;5032764;28;20196;-50
2021/12/08 04:31:01;;;;;;;40.65;24.42;;;2.30;99.90;;;;;;5031805;28;20219;-50
2021/12/08 04:33:30;;;;;;;45.78;25.92;;;2.30;99.90;;;;;;5032641;28;20199;-50
2021/12/08 04:35:57;;;;;;;36.05;22.85;;;2.30;99.90;;;;;;5032611;28;20193;-50
2021/12/08 04:38:31;;;;;;;40.72;23.52;;;2.20;99.90;;;;;;5032336;28;20527;-50
2021/12/08 04:41:03;;;;;;;33.42;23.77;;;2.40;99.90;;;;;;5032529;28;20225;-50
2021/12/08 04:43:38;;;;;;;38.50;23.60;;;2.40;99.90;;;;;;5032644;28;20189;-50
2021/12/08 04:46:16;;;;;;;41.88;24.63;;;2.30;99.90;;;;;;5032399;28;20239;-50
2021/12/08 04:49:06;;;;;;;39.90;23.67;;;2.50;99.90;;;;;;5032177;28;20204;-50
2021/12/08 04:51:45;;;;;;;35.22;23.30;;;2.30;99.90;;;;;;5032272;28;20226;-50
2021/12/08 05:03:03;;;;;;;40.22;25.08;;;2.50;99.90;;;;;;5032082;28;20259;-50
2021/12/08 05:05:59;;;;;;;39.67;25.60;;;2.20;99.90;;;;;;5032031;28;20204;-50
2021/12/08 05:08:35;;;;;;;36.15;23.45;;;2.40;99.90;;;;;;5031833;28;20274;-50
2021/12/08 05:11:02;;;;;;;36.58;24.33;;;2.50;99.90;;;;;;5032091;28;20640;-51
2021/12/08 05:13:28;;;;;;;50.55;25.20;;;2.50;99.90;;;;;;5031950;28;20200;-50
2021/12/08 05:15:57;;;;;;;38.72;25.30;;;2.50;99.90;;;;;;5032236;28;20188;-51
2021/12/08 05:18:28;;;;;;;36.38;23.98;;;2.60;99.90;;;;;;5031755;28;20234;-51
2021/12/08 05:21:02;;;;;;;35.90;24.05;;;2.50;99.90;;;;;;5031804;28;20235;-51
2021/12/08 05:23:33;;;;;;;43.15;25.95;;;2.80;99.90;;;;;;5031715;28;20204;-51
2021/12/08 05:26:03;;;;;;;39.53;24.80;;;2.50;99.90;;;;;;5031385;28;20253;-51
2021/12/08 05:28:31;;;;;;;38.70;23.92;;;2.40;99.90;;;;;;5031447;28;20211;-51
2021/12/08 05:31:04;;;;;;;35.78;24.90;;;2.50;99.90;;;;;;5031662;28;20223;-51
2021/12/08 05:33:33;;;;;;;32.63;21.77;;;2.50;99.90;;;;;;5031388;28;20542;-51
2021/12/08 05:36:00;;;;;;;40.03;23.27;;;2.50;99.90;;;;;;5031846;28;20197;-51
2021/12/08 05:38:26;;;;;;;38.42;23.45;;;1.90;99.90;;;;;;5029899;28;20259;-50
2021/12/08 05:40:55;;;;;;;35.25;22.67;;;2.50;99.90;;;;;;5031371;28;20213;-50
2021/12/08 05:43:23;;;;;;;38.67;22.90;;;1.80;99.90;;;;;;5031190;28;20202;-50
2021/12/08 05:45:52;;;;;;;39.17;23.60;;;2.30;99.90;;;;;;5031277;28;20209;-51
2021/12/08 05:48:19;;;;;;;36.63;22.65;;;2.20;99.90;;;;;;5029642;28;20291;-51
2021/12/08 05:50:50;;;;;;;37.90;23.42;;;2.30;99.90;;;;;;5030969;28;20648;-50
2021/12/08 05:53:17;;;;;;;41.13;24.15;;;2.00;99.90;;;;;;5031150;28;20211;-50
2021/12/08 05:55:45;;;;;;;38.92;23.90;;;2.10;99.90;;;;;;5029531;28;20200;-51
2021/12/08 05:58:15;;;;;;;42.42;24.83;;;1.90;99.90;;;;;;5030927;28;20219;-50
2021/12/08 06:00:45;;;;;;;41.92;25.80;;;2.10;99.90;;;;;;5031367;28;20228;-50
2021/12/08 06:03:14;;;;;;;43.42;25.60;;;1.90;99.90;;;;;;5031402;28;20606;-50
2021/12/08 06:05:44;;;;;;;35.97;22.40;;;1.80;99.90;;;;;;5030604;28;20290;-50
2021/12/08 06:08:12;;;;;;;40.13;23.33;;;2.10;99.90;;;;;;5030870;28;20230;-51
2021/12/08 06:10:39;;;;;;;36.60;23.77;;;2.00;99.90;;;;;;5030907;28;20208;-50
2021/12/08 06:13:08;;;;;;;36.60;22.08;;;1.90;99.90;;;;;;5030839;28;20283;-50
2021/12/08 06:15:35;;;;;;;42.08;22.83;;;2.40;99.90;;;;;;5030857;28;20192;-50
2021/12/08 06:18:02;;;;;;;36.78;23.42;;;1.80;99.90;;;;;;5030411;28;20192;-50
2021/12/08 06:20:29;;;;;;;42.92;24.95;;;1.80;99.90;;;;;;5030946;28;20192;-51
2021/12/08 06:22:57;;;;;;;45.55;24.23;;;1.90;99.90;;;;;;5030376;28;20286;-50
2021/12/08 06:25:26;;;;;;;42.08;24.88;;;1.80;99.90;;;;;;5030381;28;20312;-50
2021/12/08 06:27:53;;;;;;;39.80;23.95;;;1.70;99.90;;;;;;5030380;28;20211;-51
2021/12/08 06:30:23;;;;;;;44.42;23.45;;;2.00;99.90;;;;;;5030336;28;20630;-51
2021/12/08 06:32:50;;;;;;;36.40;22.00;;;1.80;99.90;;;;;;5030568;28;20274;-51
2021/12/08 06:35:20;;;;;;;42.47;24.27;;;1.90;99.90;;;;;;5030221;28;20200;-50
2021/12/08 06:37:48;;;;;;;46.92;26.15;;;1.90;99.90;;;;;;5028593;28;20201;-51
2021/12/08 06:40:17;;;;;;;40.80;24.48;;;2.10;99.90;;;;;;5030165;28;20570;-53
2021/12/08 06:42:58;;;;;;;41.05;23.30;;;1.80;99.90;;;;;;5030155;28;20212;-51
2021/12/08 06:45:31;;;;;;;42.25;24.08;;;2.00;99.90;;;;;;5030263;28;20248;-52
2021/12/08 06:48:02;;;;;;;41.25;23.42;;;1.80;99.90;;;;;;5029244;28;20710;-52
2021/12/08 06:50:34;;;;;;;44.30;26.05;;;2.00;99.90;;;;;;5030099;28;20204;-50
2021/12/08 06:53:01;;;;;;;46.45;25.80;;;1.80;99.90;;;;;;5030200;28;20204;-52
2021/12/08 06:55:32;;;;;;;42.90;26.45;;;2.10;99.90;;;;;;5033600;28;20288;-51
2021/12/08 06:58:04;;;;;;;42.88;25.98;;;2.00;99.90;;;;;;5034364;28;20189;-51
2021/12/08 07:00:48;;;;;;;39.75;24.98;;;2.10;99.90;;;;;;5032125;28;20235;-51
2021/12/08 07:03:32;;;;;;;39.50;25.02;;;1.80;99.90;;;;;;5034140;28;20270;-51
2021/12/08 07:06:07;;;;;;;41.83;24.10;;;2.10;99.90;;;;;;5034292;28;20323;-51
2021/12/08 07:08:39;;;;;;;42.13;25.77;;;1.80;99.90;;;;;;5033586;28;20274;-51
2021/12/08 07:11:07;;;;;;;40.65;27.45;;;1.90;99.90;;;;;;5033999;28;20220;-49
2021/12/08 07:13:36;;;;;;;47.40;26.42;;;2.10;99.90;;;;;;5033801;28;20197;-51
2021/12/08 07:16:09;;;;;;;50.80;27.80;;;1.80;99.90;;;;;;5032246;28;20235;-51
2021/12/08 07:18:42;;;;;;;47.95;26.92;;;2.00;99.90;;;;;;5033552;28;20294;-50
2021/12/08 07:21:12;;;;;;;49.50;27.30;;;1.90;99.90;;;;;;5033541;28;20278;-49
2021/12/08 07:23:43;;;;;;;47.75;26.95;;;2.30;99.90;;;;;;5033840;28;20196;-52
2021/12/08 07:26:15;;;;;;;38.95;24.92;;;2.10;99.90;;;;;;5033714;28;20263;-50
2021/12/08 07:28:43;;;;;;;41.65;26.10;;;2.00;99.90;;;;;;5033776;28;20197;-49
2021/12/08 07:31:14;;;;;;;47.88;25.85;;;2.00;99.90;;;;;;5033905;28;20213;-50
2021/12/08 07:33:43;;;;;;;48.22;26.90;;;2.00;99.90;;;;;;5033324;28;20188;-52
2021/12/08 07:36:15;;;;;;;45.97;26.50;;;2.10;99.90;;;;;;5033381;28;20195;-50
2021/12/08 07:38:42;;;;;;;47.72;26.67;;;2.20;99.90;;;;;;5033135;28;20208;-51
2021/12/08 07:41:12;;;;;;;46.90;25.38;;;1.90;99.90;;;;;;5033234;28;20319;-49
2021/12/08 07:43:45;;;;;;;44.75;24.98;;;1.90;99.90;;;;;;5033453;28;20287;-49
2021/12/08 07:46:16;;;;;;;45.58;24.40;;;2.20;99.90;;;;;;5033612;28;20252;-51
2021/12/08 07:48:47;;;;;;;47.80;26.65;;;2.00;99.90;;;;;;5033464;28;20197;-52
2021/12/08 07:51:17;;;;;;;52.58;27.38;;;2.00;99.90;;;;;;5054075;22;20222;-52
2021/12/08 07:53:44;;;;;;;45.28;26.40;;;2.10;99.90;;;;;;5014293;28;20751;-47
2021/12/08 07:56:15;;;;;;;50.17;27.70;;;2.00;99.90;;;;;;5013939;28;20573;-49
2021/12/08 07:58:44;;;;;;;45.92;26.92;;;1.80;99.90;;;;;;5013501;28;20551;-48
2021/12/08 08:01:16;;;;;;;53.75;28.52;;;2.30;99.90;;;;;;5015143;28;20190;-47
2021/12/08 08:03:43;;;;;;;47.15;26.50;;;2.70;99.90;;;;;;5014756;28;20204;-46
2021/12/08 08:06:15;;;;;;;48.08;26.58;;;1.80;99.90;;;;;;5014407;28;20631;-48
2021/12/08 08:08:43;;;;;;;51.17;27.70;;;2.20;99.90;;;;;;4995687;28;20204;-48
2021/12/08 08:11:16;;;;;;;57.92;25.80;;;2.20;99.90;;;;;;5013922;28;20202;-47
2021/12/08 08:13:44;;;;;;;48.50;26.10;;;2.30;99.90;;;;;;5013881;28;20216;-47
2021/12/08 08:16:15;;;;;;;53.55;27.98;;;2.10;99.90;;;;;;5013934;28;20278;-47
2021/12/08 08:18:48;;;;;;;53.72;26.50;;;2.30;99.90;;;;;;5013506;28;20198;-50
2021/12/08 08:21:19;;;;;;;49.47;26.20;;;2.10;99.90;;;;;;5013392;28;20594;-47
2021/12/08 08:23:46;;;;;;;48.58;26.55;;;2.00;99.90;;;;;;5013649;28;20190;-48
2021/12/08 08:26:14;;;;;;;47.03;26.40;;;2.40;99.90;;;;;;5013296;28;20217;-48
2021/12/08 08:28:44;;;;;;;44.28;26.58;;;2.50;99.90;;;;;;5013129;28;20271;-49
2021/12/08 08:31:17;;;;;;;51.33;26.08;;;2.70;99.90;;;;;;5013572;28;20259;-48
2021/12/08 08:33:44;;;;;;;54.90;26.88;;;3.00;99.90;;;;;;5013074;28;20730;-49
2021/12/08 08:36:15;;;;;;;53.75;27.40;;;2.70;99.90;;;;;;4995370;28;20486;-48
2021/12/08 08:38:47;;;;;;;48.42;27.02;;;2.50;99.90;;;;;;5012864;28;20658;-47
2021/12/08 08:41:19;;;;;;;45.42;26.33;;;2.50;99.90;;;;;;5012820;28;20201;-48
2021/12/08 08:43:47;;;;;;;44.13;25.95;;;2.70;99.90;;;;;;5013782;28;20201;-49
2021/12/08 08:46:20;;;;;;;53.75;27.95;;;2.10;99.90;;;;;;5012953;28;20224;-47
2021/12/08 08:48:51;;;;;;;44.92;26.58;;;2.40;99.90;;;;;;5013021;28;20197;-48
2021/12/08 08:51:22;;;;;;;50.50;26.27;;;2.10;99.90;;;;;;5012891;28;20611;-47
2021/12/08 08:53:53;;;;;;;47.50;26.48;;;2.50;99.90;;;;;;5012723;28;20233;-49
2021/12/08 08:56:24;;;;;;;48.83;26.77;;;2.30;99.90;;;;;;5013006;28;20201;-47
2021/12/08 08:58:55;;;;;;;48.30;26.77;;;2.80;99.90;;;;;;5013050;28;20202;-47
2021/12/08 09:01:26;;;;;;;47.47;24.67;;;2.50;99.90;;;;;;5012802;28;20228;-47
2021/12/08 09:03:56;;;;;;;48.38;25.50;;;2.80;99.90;;;;;;5013233;28;20186;-47
2021/12/08 09:06:26;;;;;;;48.72;25.42;;;2.80;99.90;;;;;;5012927;28;20217;-51
2021/12/08 09:08:53;;;;;;;45.72;25.73;;;2.30;99.90;;;;;;5012454;28;20232;-49
2021/12/08 09:11:24;;;;;;;51.65;27.70;;;2.90;99.90;;;;;;5013030;28;20213;-49
2021/12/08 09:13:54;;;;;;;48.17;26.98;;;2.80;99.90;;;;;;5013233;28;20197;-50
2021/12/08 09:16:28;;;;;;;53.80;26.98;;;3.00;99.90;;;;;;5012015;28;20193;-47
2021/12/08 09:19:02;;;;;;;47.30;25.90;;;2.80;99.90;;;;;;5011836;28;20692;-47
2021/12/08 09:21:35;;;;;;;45.83;25.48;;;2.90;99.90;;;;;;5012289;28;20663;-48
2021/12/08 09:24:11;;;;;;;45.58;25.38;;;3.10;99.90;;;;;;5012188;28;20208;-48
2021/12/08 09:26:41;;;;;;;47.15;26.08;;;2.90;99.90;;;;;;5014639;28;20220;-49
2021/12/08 09:29:11;;;;;;;43.15;22.77;;;2.80;99.90;;;;;;4994131;28;20262;-51
2021/12/08 09:31:44;;;;;;;45.35;24.33;;;3.00;99.90;;;;;;5012409;28;20213;-48
2021/12/08 09:34:16;;;;;;;47.58;26.15;;;2.80;99.90;;;;;;5012435;28;20197;-47
2021/12/08 09:36:46;;;;;;;50.08;26.30;;;2.30;99.90;;;;;;5011806;28;20197;-48
2021/12/08 09:39:21;;;;;;;47.20;25.30;;;2.80;99.90;;;;;;5011451;28;20208;-49
2021/12/08 09:41:53;;;;;;;43.45;23.13;;;2.80;99.90;;;;;;5011752;28;20259;-48
2021/12/08 09:44:24;;;;;;;43.50;24.80;;;2.70;99.90;;;;;;5011973;28;20201;-50
2021/12/08 09:46:53;;;;;;;44.70;25.73;;;3.10;99.90;;;;;;5011900;28;20221;-49
2021/12/08 09:49:23;;;;;;;51.35;26.33;;;3.20;99.90;;;;;;4994014;28;20196;-50
2021/12/08 09:51:50;;;;;;;53.92;27.25;;;2.90;99.90;;;;;;4994896;28;20245;-48
2021/12/08 09:54:17;;;;;;;46.90;28.35;;;3.60;99.90;;;;;;5012442;28;20563;-48
2021/12/08 09:56:47;;;;;;;46.60;27.15;;;2.90;99.90;;;;;;5011734;28;20193;-50
2021/12/08 09:59:14;;;;;;;49.13;26.13;;;3.10;99.90;;;;;;4993857;28;20288;-48
2021/12/08 10:01:42;;;;;;;47.65;26.92;;;3.10;99.90;;;;;;4993008;28;20235;-48
2021/12/08 10:04:12;;;;;;;43.55;24.83;;;3.00;99.90;;;;;;5011757;28;20232;-49
2021/12/08 10:06:42;;;;;;;50.55;26.45;;;3.20;99.90;;;;;;5011487;28;20228;-49
2021/12/08 10:09:09;;;;;;;49.65;25.80;;;3.20;99.90;;;;;;5010831;28;20197;-49
2021/12/08 10:11:36;;;;;;;51.85;28.65;;;3.30;99.90;;;;;;5010800;28;20213;-50
2021/12/08 10:14:04;;;;;;;52.08;27.90;;;3.10;99.90;;;;;;5009485;28;20200;-49
2021/12/08 10:16:32;;;;;;;47.97;26.30;;;2.70;99.90;;;;;;5010838;28;20197;-49
2021/12/08 10:19:00;;;;;;;49.17;26.85;;;3.10;99.90;;;;;;4993136;28;20364;-49
2021/12/08 10:21:35;;;;;;;44.58;26.88;;;3.10;99.90;;;;;;5011180;28;20221;-49
2021/12/08 10:24:03;;;;;;;45.75;27.48;;;3.10;99.90;;;;;;5011216;28;20207;-49
2021/12/08 10:26:33;;;;;;;47.75;25.60;;;3.20;99.90;;;;;;5011581;28;20225;-48
2021/12/08 10:29:00;;;;;;;45.97;24.33;;;3.60;99.90;;;;;;5012460;28;20201;-49
2021/12/08 10:31:31;;;;;;;49.40;26.70;;;3.60;99.90;;;;;;5015580;28;20259;-50
2021/12/08 10:34:02;;;;;;;45.60;26.65;;;3.60;99.90;;;;;;5015193;28;20290;-50
2021/12/08 10:36:43;;;;;;;48.65;26.23;;;3.60;99.90;;;;;;5015533;28;20205;-50
2021/12/08 10:39:14;;;;;;;46.42;26.15;;;3.50;99.90;;;;;;5015270;28;20279;-52
2021/12/08 10:41:51;;;;;;;50.35;26.50;;;3.60;99.90;;;;;;5015521;28;20220;-52
2021/12/08 10:44:23;;;;;;;49.95;26.42;;;3.80;99.90;;;;;;5015481;28;20511;-51
2021/12/08 10:46:54;;;;;;;44.17;25.60;;;3.50;99.90;;;;;;5015550;28;20221;-51
2021/12/08 10:49:27;;;;;;;51.55;26.80;;;3.70;99.90;;;;;;5014744;28;20189;-50
2021/12/08 10:54:40;;;;;;;48.03;28.67;;;3.50;99.90;;;;;;5015196;28;20255;-50
2021/12/08 10:57:22;;;;;;;48.83;25.67;;;3.80;99.90;;;;;;5015045;28;20193;-51
2021/12/08 11:00:05;;;;;;;50.72;26.80;;;4.00;99.90;;;;;;5014828;28;20205;-50
2021/12/08 11:02:54;;;;;;;46.85;25.98;;;3.80;99.90;;;;;;5014535;28;20213;-51
2021/12/08 11:05:46;;;;;;;50.72;28.25;;;3.90;99.90;;;;;;5009447;28;20701;-51
2021/12/08 11:08:21;;;;;;;42.67;24.75;;;3.90;99.90;;;;;;4996984;28;20694;-50
2021/12/08 11:10:51;;;;;;;50.15;27.33;;;4.00;99.90;;;;;;5015355;28;20201;-51
2021/12/08 11:13:20;;;;;;;49.22;27.02;;;4.30;99.90;;;;;;5014993;28;20275;-51
2021/12/08 11:15:48;;;;;;;45.03;25.95;;;3.50;99.90;;;;;;5015128;28;20742;-51
2021/12/08 11:18:21;;;;;;;49.65;26.95;;;3.30;99.90;;;;;;5014578;28;20284;-50
2021/12/08 11:20:53;;;;;;;50.40;26.50;;;3.90;99.90;;;;;;5015118;28;20194;-51
2021/12/08 11:23:42;;;;;;;46.55;27.42;;;3.30;99.90;;;;;;5015196;28;20685;-50
2021/12/08 11:26:27;;;;;;;42.83;24.20;;;3.30;99.90;;;;;;5014983;28;20200;-50
2021/12/08 11:28:59;;;;;;;43.90;26.50;;;3.70;99.90;;;;;;5014581;28;20190;-50
2021/12/08 11:31:31;;;;;;;51.88;26.60;;;3.70;99.90;;;;;;5015324;28;20221;-50
2021/12/08 11:34:01;;;;;;;43.60;26.10;;;3.20;99.90;;;;;;5014743;28;20206;-50
2021/12/08 11:36:30;;;;;;;44.95;25.02;;;4.00;99.90;;;;;;5014784;28;20330;-50
2021/12/08 11:39:04;;;;;;;46.28;25.73;;;3.90;99.90;;;;;;4996862;28;20232;-50
2021/12/08 11:41:36;;;;;;;48.00;26.70;;;3.70;99.90;;;;;;5013889;28;20220;-51
2021/12/08 11:44:07;;;;;;;53.40;28.55;;;3.80;99.90;;;;;;5014220;28;20204;-51
2021/12/08 11:46:39;;;;;;;48.63;25.38;;;3.70;99.90;;;;;;5014658;28;20217;-51
2021/12/08 11:49:08;;;;;;;47.95;25.83;;;3.20;99.90;;;;;;4995580;28;20319;-51
2021/12/08 11:51:50;;;;;;;44.25;25.80;;;4.00;99.90;;;;;;5014045;28;20655;-51
2021/12/08 11:54:28;;;;;;;47.83;26.05;;;3.90;99.90;;;;;;5014447;28;20197;-51
2021/12/08 11:57:02;;;;;;;48.35;26.50;;;3.90;99.90;;;;;;4996412;28;20229;-50
2021/12/08 11:59:29;;;;;;;42.90;25.70;;;3.80;99.90;;;;;;5013449;28;20209;-51
2021/12/08 12:01:55;;;;;;;42.67;25.88;;;3.30;99.90;;;;;;5014208;28;20566;-50
2021/12/08 12:04:22;;;;;;;44.10;24.92;;;3.90;99.90;;;;;;5013628;28;20197;-51
2021/12/08 12:06:49;;;;;;;48.55;24.85;;;4.00;99.90;;;;;;5013967;28;20254;-50
2021/12/08 12:09:15;;;;;;;43.08;25.05;;;3.80;99.90;;;;;;5013432;28;20688;-50
2021/12/08 12:11:43;;;;;;;46.42;25.20;;;3.90;99.90;;;;;;5013690;28;20221;-52
2021/12/08 12:14:10;;;;;;;40.28;24.88;;;4.00;99.90;;;;;;5014141;28;20198;-50
2021/12/08 12:16:38;;;;;;;48.80;25.63;;;3.80;99.90;;;;;;5014309;28;20201;-51
2021/12/08 12:19:06;;;;;;;47.35;26.60;;;4.00;99.90;;;;;;5013955;28;20289;-51
2021/12/08 12:21:42;;;;;;;47.08;25.40;;;4.00;99.90;;;;;;5014228;28;20220;-51
2021/12/08 12:24:39;;;;;;;49.13;26.42;;;4.10;99.90;;;;;;5013995;28;20239;-51
2021/12/08 12:27:23;;;;;;;55.05;25.70;;;4.10;99.90;;;;;;5012743;28;20685;-51
2021/12/08 12:30:05;;;;;;;45.92;26.30;;;4.10;99.90;;;;;;5013140;28;20197;-50
2021/12/08 12:32:34;;;;;;;45.13;24.17;;;3.40;99.90;;;;;;5014060;28;20216;-51
2021/12/08 12:35:13;;;;;;;46.10;24.48;;;4.10;99.90;;;;;;5014505;28;20232;-51
2021/12/08 12:37:40;;;;;;;43.40;25.55;;;4.30;99.90;;;;;;5013256;28;20634;-49
2021/12/08 12:40:09;;;;;;;43.42;24.80;;;4.20;99.90;;;;;;5013391;28;20189;-51
2021/12/08 12:42:59;;;;;;;48.13;27.60;;;4.20;99.90;;;;;;5013464;28;20635;-50
2021/12/08 12:45:33;;;;;;;41.88;24.50;;;3.60;99.90;;;;;;5007276;28;20596;-51
2021/12/08 12:48:13;;;;;;;45.95;26.20;;;4.10;99.90;;;;;;5013046;28;20228;-55
2021/12/08 12:50:55;;;;;;;42.28;24.88;;;4.10;99.90;;;;;;5014114;28;20216;-51
2021/12/08 12:53:43;;;;;;;44.80;23.90;;;4.30;99.90;;;;;;5012403;28;20212;-51
2021/12/08 12:56:13;;;;;;;43.75;25.67;;;4.20;99.90;;;;;;5013115;28;20696;-51
2021/12/08 12:58:48;;;;;;;47.10;26.95;;;4.20;99.90;;;;;;5012573;28;20209;-51
2021/12/08 13:01:19;;;;;;;43.67;24.83;;;4.00;99.90;;;;;;5012877;28;20205;-53
2021/12/08 13:03:49;;;;;;;38.08;23.65;;;4.10;99.90;;;;;;5012451;28;20205;-50
2021/12/08 13:06:37;;;;;;;43.20;24.73;;;4.20;99.90;;;;;;5013141;28;20193;-52
2021/12/08 13:09:05;;;;;;;42.72;23.77;;;4.10;99.90;;;;;;5012352;28;20206;-51
2021/12/08 13:11:44;;;;;;;46.22;25.98;;;4.10;99.90;;;;;;5012693;28;20213;-52
2021/12/08 13:14:29;;;;;;;46.03;25.98;;;4.10;99.90;;;;;;5012069;28;20197;-51
2021/12/08 13:17:23;;;;;;;43.65;24.45;;;4.00;99.90;;;;;;5013165;28;20251;-52
2021/12/08 13:19:54;;;;;;;45.90;23.92;;;4.20;99.90;;;;;;5012135;28;20212;-51
2021/12/08 13:23:00;;;;;;;42.90;25.27;;;4.00;99.90;;;;;;5012188;28;20217;-51
2021/12/08 13:25:52;;;;;;;51.00;25.10;;;4.10;99.90;;;;;;5012091;28;20256;-52